createdAt,value
2022-12-18T00:02:11.896Z,47.13
2022-12-18T00:04:38.454Z,48.10
2022-12-18T00:07:05.313Z,45.57
2022-12-18T00:09:40.292Z,43.77
2022-12-18T00:14:45.453Z,45.80
2022-12-18T00:17:11.925Z,45.00
2022-12-18T00:19:38.239Z,44.30
2022-12-18T00:22:04.639Z,47.37
2022-12-18T00:24:31.040Z,44.80
2022-12-18T00:26:57.388Z,44.17
2022-12-18T00:29:23.796Z,42.43
2022-12-18T00:31:50.218Z,45.73
2022-12-18T00:34:17.033Z,39.37
2022-12-18T00:36:43.362Z,42.17
2022-12-18T00:39:11.310Z,43.43
2022-12-18T00:41:56.266Z,45.83
2022-12-18T00:44:22.611Z,43.27
2022-12-18T00:46:49.339Z,46.10
2022-12-18T00:49:18.596Z,41.00
2022-12-18T00:51:46.151Z,42.33
2022-12-18T00:54:12.849Z,41.43
2022-12-18T00:56:48.382Z,42.27
2022-12-18T00:59:15.453Z,40.97
2022-12-18T01:01:41.999Z,41.70
2022-12-18T01:04:08.713Z,39.97
2022-12-18T01:06:35.306Z,44.93
2022-12-18T01:09:01.765Z,41.43
2022-12-18T01:11:28.146Z,40.63
2022-12-18T01:13:54.793Z,41.43
2022-12-18T01:16:23.237Z,39.27
2022-12-18T01:18:53.313Z,40.30
2022-12-18T01:21:19.699Z,45.37
2022-12-18T01:23:46.595Z,42.57
2022-12-18T01:26:15.713Z,41.83
2022-12-18T01:28:43.092Z,41.53
2022-12-18T01:31:23.736Z,40.07
2022-12-18T01:33:51.497Z,41.07
2022-12-18T01:36:19.427Z,39.77
2022-12-18T01:38:46.288Z,39.13
2022-12-18T01:41:13.946Z,39.80
2022-12-18T01:43:54.665Z,41.73
2022-12-18T01:46:26.099Z,39.73
2022-12-18T01:49:02.013Z,38.83
2022-12-18T01:51:30.637Z,39.70
2022-12-18T01:53:59.892Z,38.33
2022-12-18T01:56:26.246Z,38.80
2022-12-18T01:59:00.682Z,40.37
2022-12-18T02:01:27.577Z,39.13
2022-12-18T02:03:54.438Z,40.30
2022-12-18T02:06:35.207Z,41.07
2022-12-18T02:09:19.838Z,40.37
2022-12-18T02:11:46.110Z,40.10
2022-12-18T02:14:33.308Z,39.80
2022-12-18T02:17:07.358Z,38.40
2022-12-18T02:20:03.833Z,35.43
2022-12-18T02:23:05.682Z,36.17
2022-12-18T02:25:58.821Z,33.97
2022-12-18T02:28:30.438Z,36.07
2022-12-18T02:31:03.673Z,35.90
2022-12-18T02:33:31.799Z,36.13
2022-12-18T02:36:00.827Z,36.50
2022-12-18T02:38:29.724Z,39.27
2022-12-18T02:41:00.426Z,37.40
2022-12-18T02:43:27.220Z,34.70
2022-12-18T02:45:59.084Z,38.50
2022-12-18T02:48:34.804Z,35.47
2022-12-18T02:51:29.891Z,36.77
2022-12-18T02:54:38.548Z,34.73
2022-12-18T02:57:37.637Z,36.50
2022-12-18T03:00:04.118Z,35.77
2022-12-18T03:02:40.013Z,38.67
2022-12-18T03:05:18.743Z,35.20
2022-12-18T03:07:54.213Z,37.07
2022-12-18T03:10:27.680Z,34.07
2022-12-18T03:13:14.671Z,36.00
2022-12-18T03:15:48.650Z,37.07
2022-12-18T03:18:35.159Z,32.80
2022-12-18T03:21:06.143Z,33.73
2022-12-18T03:23:41.387Z,32.30
2022-12-18T03:26:12.334Z,34.27
2022-12-18T03:28:49.666Z,33.17
2022-12-18T03:31:18.468Z,32.70
2022-12-18T03:33:52.028Z,31.67
2022-12-18T03:36:18.820Z,31.40
2022-12-18T03:38:45.232Z,31.50
2022-12-18T03:41:29.424Z,32.57
2022-12-18T03:44:24.719Z,31.70
2022-12-18T03:47:04.767Z,31.37
2022-12-18T03:49:39.547Z,30.00
2022-12-18T03:52:13.482Z,30.97
2022-12-18T03:54:44.310Z,31.47
2022-12-18T03:57:20.577Z,33.70
2022-12-18T03:59:53.087Z,30.93
2022-12-18T04:02:24.354Z,32.80
2022-12-18T04:04:54.322Z,30.13
2022-12-18T04:07:22.939Z,31.90
2022-12-18T04:09:51.091Z,31.37
2022-12-18T04:12:18.250Z,31.30
2022-12-18T04:14:46.260Z,31.20
2022-12-18T04:17:13.388Z,33.97
2022-12-18T04:19:39.796Z,31.90
2022-12-18T04:22:11.054Z,32.50
2022-12-18T04:24:42.486Z,31.53
2022-12-18T04:27:15.746Z,32.80
2022-12-18T04:29:47.288Z,33.40
2022-12-18T04:32:14.741Z,32.83
2022-12-18T04:34:43.338Z,34.43
2022-12-18T04:37:09.756Z,32.77
2022-12-18T04:39:36.659Z,34.13
2022-12-18T04:42:08.325Z,33.37
2022-12-18T04:44:35.147Z,31.17
2022-12-18T04:47:01.466Z,34.10
2022-12-18T04:49:27.818Z,33.07
2022-12-18T04:51:54.403Z,34.40
2022-12-18T04:54:21.531Z,32.33
2022-12-18T04:56:47.860Z,33.63
2022-12-18T04:59:14.456Z,33.27
2022-12-18T05:01:40.885Z,34.37
2022-12-18T05:04:07.679Z,33.47
2022-12-18T05:06:34.326Z,34.63
2022-12-18T05:09:00.652Z,33.87
2022-12-18T05:11:26.980Z,33.43
2022-12-18T05:13:53.312Z,31.53
2022-12-18T05:16:19.650Z,31.73
2022-12-18T05:18:46.098Z,31.77
2022-12-18T05:21:12.671Z,30.17
2022-12-18T05:23:39.449Z,31.10
2022-12-18T05:26:07.169Z,33.20
2022-12-18T05:28:35.632Z,32.83
2022-12-18T05:31:03.924Z,32.60
2022-12-18T05:33:33.059Z,33.13
2022-12-18T05:36:01.987Z,31.97
2022-12-18T05:38:29.928Z,29.50
2022-12-18T05:40:57.163Z,34.10
2022-12-18T05:43:24.366Z,32.87
2022-12-18T05:45:51.807Z,32.77
2022-12-18T05:48:18.546Z,34.43
2022-12-18T05:50:46.586Z,31.77
2022-12-18T05:53:15.186Z,33.30
2022-12-18T05:55:42.671Z,30.70
2022-12-18T05:58:10.852Z,32.87
2022-12-18T06:00:41.766Z,31.20
2022-12-18T06:03:09.589Z,32.07
2022-12-18T06:05:38.815Z,28.50
2022-12-18T06:08:05.484Z,27.53
2022-12-18T06:10:32.145Z,32.50
2022-12-18T06:12:58.587Z,31.90
2022-12-18T06:15:25.370Z,31.63
2022-12-18T06:17:51.720Z,29.20
2022-12-18T06:20:18.155Z,32.07
2022-12-18T06:22:44.505Z,32.27
2022-12-18T06:25:10.917Z,30.67
2022-12-18T06:27:37.230Z,29.30
2022-12-18T06:30:04.802Z,31.37
2022-12-18T06:32:31.480Z,30.43
2022-12-18T06:34:57.840Z,30.47
2022-12-18T06:37:27.191Z,28.73
2022-12-18T06:39:54.414Z,30.23
2022-12-18T06:42:20.724Z,29.10
2022-12-18T06:44:47.014Z,29.00
2022-12-18T06:47:13.336Z,29.17
2022-12-18T06:49:39.647Z,29.00
2022-12-18T06:52:05.976Z,32.00
2022-12-18T06:54:32.327Z,31.27
2022-12-18T06:56:58.649Z,30.47
2022-12-18T06:59:25.261Z,31.20
2022-12-18T07:01:52.513Z,29.20
2022-12-18T07:04:18.959Z,29.77
2022-12-18T07:06:45.284Z,29.70
2022-12-18T07:09:11.627Z,31.07
2022-12-18T07:11:37.952Z,28.83
2022-12-18T07:14:04.330Z,30.10
2022-12-18T07:16:30.704Z,28.27
2022-12-18T07:18:57.402Z,28.87
2022-12-18T07:21:24.890Z,27.10
2022-12-18T07:23:51.776Z,30.03
2022-12-18T07:26:21.301Z,28.43
2022-12-18T07:28:48.147Z,26.70
2022-12-18T07:31:20.303Z,26.13
2022-12-18T07:33:48.250Z,25.90
2022-12-18T07:36:15.035Z,27.07
2022-12-18T07:38:41.466Z,25.97
2022-12-18T07:41:13.417Z,26.10
2022-12-18T07:43:41.936Z,25.70
2022-12-18T07:46:10.169Z,26.87
2022-12-18T07:48:36.651Z,25.13
2022-12-18T07:51:05.365Z,26.87
2022-12-18T07:53:32.795Z,28.80
2022-12-18T07:56:26.027Z,28.00
2022-12-18T07:58:47.327Z,26.90
2022-12-18T08:01:15.014Z,26.70
2022-12-18T08:03:42.234Z,29.67
2022-12-18T08:06:10.756Z,26.23
2022-12-18T08:08:37.426Z,28.30
2022-12-18T08:11:04.179Z,27.70
2022-12-18T08:13:30.526Z,27.70
2022-12-18T08:15:57.836Z,26.53
2022-12-18T08:18:24.264Z,29.47
2022-12-18T08:20:50.616Z,27.77
2022-12-18T08:23:16.959Z,27.37
2022-12-18T08:25:43.296Z,26.43
2022-12-18T08:28:09.608Z,28.53
2022-12-18T08:30:36.774Z,26.80
2022-12-18T08:33:04.090Z,24.80
2022-12-18T08:35:35.856Z,22.80
2022-12-18T08:38:04.193Z,23.60
2022-12-18T08:40:30.584Z,19.80
2022-12-18T08:43:15.383Z,19.10
2022-12-18T08:45:41.781Z,21.57
2022-12-18T08:48:08.152Z,19.60
2022-12-18T08:50:34.528Z,22.93
2022-12-18T08:53:01.372Z,20.57
2022-12-18T08:55:27.699Z,23.40
2022-12-18T08:57:53.999Z,23.97
2022-12-18T09:00:20.883Z,23.90
2022-12-18T09:02:47.301Z,21.67
2022-12-18T09:05:13.934Z,23.20
2022-12-18T09:07:40.520Z,23.83
2022-12-18T09:10:07.311Z,21.70
2022-12-18T09:12:33.678Z,24.60
2022-12-18T09:14:59.979Z,21.47
2022-12-18T09:17:26.350Z,23.57
2022-12-18T09:19:52.712Z,22.50
2022-12-18T09:22:19.028Z,23.93
2022-12-18T09:24:45.335Z,23.63
2022-12-18T09:27:11.670Z,23.83
2022-12-18T09:29:37.990Z,25.13
2022-12-18T09:32:04.579Z,25.30
2022-12-18T09:34:30.973Z,28.00
2022-12-18T09:36:57.275Z,28.83
2022-12-18T09:39:24.327Z,25.67
2022-12-18T09:41:58.903Z,25.47
2022-12-18T09:44:31.745Z,23.67
2022-12-18T09:47:13.223Z,24.80
2022-12-18T09:49:49.012Z,23.90
2022-12-18T09:52:22.407Z,25.40
2022-12-18T09:55:02.807Z,25.30
2022-12-18T09:57:34.147Z,25.40
2022-12-18T10:00:10.730Z,23.33
2022-12-18T10:02:41.570Z,23.27
2022-12-18T10:05:13.074Z,23.30
2022-12-18T10:08:03.437Z,23.87
2022-12-18T10:10:47.483Z,22.77
2022-12-18T10:13:17.910Z,24.57
2022-12-18T10:16:02.999Z,25.07
2022-12-18T10:19:03.172Z,23.77
2022-12-18T10:21:35.540Z,22.13
2022-12-18T10:24:27.618Z,24.37
2022-12-18T10:27:00.556Z,23.63
2022-12-18T10:29:27.094Z,24.27
2022-12-18T10:31:53.392Z,22.63
2022-12-18T10:34:19.712Z,23.13
2022-12-18T10:36:48.404Z,23.07
2022-12-18T10:39:17.605Z,23.57
2022-12-18T10:41:44.055Z,21.60
2022-12-18T10:44:25.240Z,24.30
2022-12-18T10:46:56.834Z,23.10
2022-12-18T10:49:29.615Z,22.67
2022-12-18T10:52:19.367Z,23.07
2022-12-18T10:55:04.136Z,23.20
2022-12-18T10:57:34.032Z,22.30
2022-12-18T11:00:22.101Z,23.23
2022-12-18T11:02:48.634Z,21.47
2022-12-18T11:05:31.710Z,22.53
2022-12-18T11:07:59.679Z,21.73
2022-12-18T11:10:34.518Z,22.53
2022-12-18T11:13:31.147Z,23.00
2022-12-18T11:15:58.343Z,20.87
2022-12-18T11:18:32.418Z,21.83
2022-12-18T11:21:07.075Z,20.77
2022-12-18T11:23:35.035Z,22.43
2022-12-18T11:26:06.819Z,21.00
2022-12-18T11:28:39.614Z,22.73
2022-12-18T11:31:17.349Z,21.87
2022-12-18T11:34:26.740Z,22.20
2022-12-18T11:36:45.730Z,23.27
2022-12-18T11:39:39.574Z,23.03
2022-12-18T11:42:16.937Z,24.00
2022-12-18T11:44:49.476Z,24.57
2022-12-18T11:47:39.897Z,22.90
2022-12-18T11:50:15.405Z,23.13
2022-12-18T11:52:42.859Z,20.20
2022-12-18T11:55:44.809Z,22.33
2022-12-18T11:58:35.134Z,21.93
2022-12-18T12:01:25.843Z,22.67
2022-12-18T12:04:09.716Z,20.33
2022-12-18T12:06:56.476Z,20.97
2022-12-18T12:09:44.458Z,22.93
2022-12-18T12:12:26.840Z,21.63
2022-12-18T12:15:04.707Z,22.07
2022-12-18T12:18:11.270Z,22.23
2022-12-18T12:20:40.882Z,20.70
2022-12-18T12:23:27.963Z,21.27
2022-12-18T12:26:06.025Z,22.33
2022-12-18T12:28:53.794Z,22.27
2022-12-18T12:31:40.490Z,21.27
2022-12-18T12:34:35.718Z,21.57
2022-12-18T12:37:25.115Z,21.77
2022-12-18T12:39:53.966Z,21.40
2022-12-18T12:42:54.708Z,23.43
2022-12-18T12:45:32.331Z,23.13
2022-12-18T12:48:00.530Z,21.67
2022-12-18T12:50:27.159Z,23.30
2022-12-18T12:52:58.195Z,23.23
2022-12-18T12:55:27.640Z,22.77
2022-12-18T12:58:19.121Z,23.87
2022-12-18T13:01:11.788Z,23.27
2022-12-18T13:03:52.461Z,22.13
2022-12-18T13:07:00.932Z,21.97
2022-12-18T13:09:31.431Z,23.50
2022-12-18T13:12:24.179Z,22.77
2022-12-18T13:14:50.615Z,23.20
2022-12-18T13:17:20.732Z,24.00
2022-12-18T13:19:51.986Z,25.03
2022-12-18T13:22:29.760Z,25.50
2022-12-18T13:24:56.151Z,25.57
2022-12-18T13:27:45.195Z,25.53
2022-12-18T13:30:34.476Z,25.03
2022-12-18T13:33:20.485Z,23.67
2022-12-18T13:35:46.862Z,23.07
2022-12-18T13:38:35.854Z,23.93
2022-12-18T13:41:23.941Z,25.00
2022-12-18T13:43:53.171Z,25.50
2022-12-18T13:46:27.989Z,24.37
2022-12-18T13:49:15.041Z,24.27
2022-12-18T13:51:45.210Z,24.17
2022-12-18T13:54:33.835Z,24.50
2022-12-18T13:57:00.593Z,24.70
2022-12-18T13:59:38.067Z,24.80
2022-12-18T14:02:15.763Z,23.83
2022-12-18T14:04:42.704Z,24.00
2022-12-18T14:07:14.912Z,22.70
2022-12-18T14:09:44.450Z,21.57
2022-12-18T14:12:43.906Z,22.67
2022-12-18T14:15:26.907Z,21.53
2022-12-18T14:18:10.578Z,21.23
2022-12-18T14:20:40.972Z,19.77
2022-12-18T14:23:27.638Z,20.00
2022-12-18T14:25:53.991Z,19.33
2022-12-18T14:28:22.587Z,19.47
2022-12-18T14:30:49.435Z,18.63
2022-12-18T14:33:20.111Z,16.30
2022-12-18T14:36:01.741Z,14.30
2022-12-18T14:38:33.372Z,15.27
2022-12-18T14:41:03.146Z,15.10
2022-12-18T14:43:33.115Z,14.87
2022-12-18T14:46:00.392Z,14.00
2022-12-18T14:48:41.942Z,13.57
2022-12-18T14:51:18.694Z,11.87
2022-12-18T14:53:55.473Z,14.40
2022-12-18T14:56:22.123Z,12.90
2022-12-18T14:58:56.421Z,15.37
2022-12-18T15:01:29.109Z,13.70
2022-12-18T15:03:57.501Z,15.77
2022-12-18T15:06:30.422Z,15.77
2022-12-18T15:08:57.821Z,12.80
2022-12-18T15:11:45.323Z,12.97
2022-12-18T15:14:38.506Z,14.43
2022-12-18T15:17:15.348Z,15.20
2022-12-18T15:19:44.286Z,12.93
2022-12-18T15:22:28.064Z,14.70
2022-12-18T15:24:56.078Z,14.60
2022-12-18T15:27:30.065Z,14.43
2022-12-18T15:30:11.361Z,13.83
2022-12-18T15:32:39.457Z,13.97
2022-12-18T15:35:11.813Z,14.30
2022-12-18T15:37:40.125Z,14.13
2022-12-18T15:40:12.679Z,15.17
2022-12-18T15:42:57.658Z,15.10
2022-12-18T15:45:24.322Z,16.20
2022-12-18T15:47:50.810Z,15.00
2022-12-18T15:50:17.159Z,14.47
2022-12-18T15:52:48.432Z,16.83
2022-12-18T15:55:41.948Z,14.63
2022-12-18T15:58:10.848Z,15.80
2022-12-18T16:00:40.038Z,16.67
2022-12-18T16:03:06.893Z,16.10
2022-12-18T16:05:34.058Z,15.63
2022-12-18T16:08:00.466Z,16.47
2022-12-18T16:10:28.227Z,17.37
2022-12-18T16:12:54.707Z,17.97
2022-12-18T16:15:24.816Z,18.47
2022-12-18T16:17:52.578Z,17.37
2022-12-18T16:20:22.254Z,18.43
2022-12-18T16:22:49.613Z,20.07
2022-12-18T16:25:25.146Z,17.87
2022-12-18T16:27:52.216Z,19.07
2022-12-18T16:30:21.483Z,19.97
2022-12-18T16:32:48.006Z,17.83
2022-12-18T16:35:16.112Z,17.83
2022-12-18T16:37:43.448Z,18.43
2022-12-18T16:40:12.587Z,18.53
2022-12-18T16:42:41.122Z,20.40
2022-12-18T16:45:09.766Z,22.57
2022-12-18T16:47:36.455Z,22.17
2022-12-18T16:50:03.969Z,19.37
2022-12-18T16:52:30.492Z,19.03
2022-12-18T16:54:57.033Z,17.97
2022-12-18T16:57:25.370Z,18.93
2022-12-18T16:59:52.510Z,19.30
2022-12-18T17:02:23.987Z,19.20
2022-12-18T17:04:54.001Z,29.57
2022-12-18T17:07:20.519Z,21.37
2022-12-18T17:09:47.015Z,17.77
2022-12-18T17:12:13.534Z,18.33
2022-12-18T17:14:40.029Z,19.27
2022-12-18T17:17:20.935Z,18.70
2022-12-18T17:19:48.225Z,19.33
2022-12-18T17:22:14.692Z,19.70
2022-12-18T17:24:41.551Z,19.87
2022-12-18T17:27:08.795Z,21.37
2022-12-18T17:29:35.251Z,20.97
2022-12-18T17:32:01.710Z,19.53
2022-12-18T17:34:28.694Z,19.83
2022-12-18T17:36:56.387Z,21.30
2022-12-18T17:39:22.771Z,23.23
2022-12-18T17:41:49.946Z,20.77
2022-12-18T17:44:17.179Z,20.60
2022-12-18T17:46:44.017Z,20.77
2022-12-18T17:49:11.404Z,19.27
2022-12-18T17:51:38.849Z,20.13
2022-12-18T17:54:06.345Z,20.67
2022-12-18T17:56:32.950Z,19.87
2022-12-18T17:59:00.022Z,19.87
2022-12-18T18:01:26.680Z,20.83
2022-12-18T18:03:55.992Z,20.97
2022-12-18T18:06:23.811Z,20.37
2022-12-18T18:08:51.194Z,18.70
2022-12-18T18:11:39.414Z,18.97
2022-12-18T18:14:12.363Z,19.20
2022-12-18T18:16:43.957Z,19.93
2022-12-18T18:19:13.843Z,19.27
2022-12-18T18:21:42.239Z,20.50
2022-12-18T18:24:10.864Z,21.70
2022-12-18T18:26:38.284Z,20.67
2022-12-18T18:29:07.081Z,20.53
2022-12-18T18:31:38.213Z,19.77
2022-12-18T18:34:08.493Z,21.67
2022-12-18T18:36:34.982Z,20.27
2022-12-18T18:39:02.084Z,21.50
2022-12-18T18:41:29.898Z,19.27
2022-12-18T18:43:57.802Z,19.93
2022-12-18T18:46:25.262Z,21.23
2022-12-18T18:48:51.882Z,19.20
2022-12-18T18:51:21.074Z,21.20
2022-12-18T18:53:49.896Z,20.93
2022-12-18T18:56:50.222Z,22.43
2022-12-18T18:59:06.215Z,20.97
2022-12-18T19:01:33.046Z,22.00
2022-12-18T19:04:00.953Z,25.27
2022-12-18T19:06:28.615Z,24.57
2022-12-18T19:08:57.423Z,23.80
2022-12-18T19:11:44.198Z,22.20
2022-12-18T19:14:12.818Z,22.83
2022-12-18T19:16:40.204Z,22.10
2022-12-18T19:19:07.557Z,22.20
2022-12-18T19:21:35.190Z,21.23
2022-12-18T19:24:02.443Z,22.13
2022-12-18T19:26:29.260Z,22.63
2022-12-18T19:29:04.434Z,21.27
2022-12-18T19:31:35.550Z,22.47
2022-12-18T19:34:03.829Z,22.20
2022-12-18T19:36:31.393Z,24.13
2022-12-18T19:39:00.239Z,22.43
2022-12-18T19:41:29.167Z,22.93
2022-12-18T19:43:58.368Z,23.43
2022-12-18T19:46:27.343Z,22.37
2022-12-18T19:48:53.868Z,21.47
2022-12-18T19:51:23.919Z,21.33
2022-12-18T19:53:56.433Z,25.53
2022-12-18T19:56:26.674Z,20.93
2022-12-18T19:58:54.219Z,22.80
2022-12-18T20:01:22.850Z,23.00
2022-12-18T20:03:52.585Z,21.87
2022-12-18T20:06:32.971Z,20.50
2022-12-18T20:09:05.911Z,22.00
2022-12-18T20:11:33.674Z,21.23
2022-12-18T20:14:02.210Z,24.63
2022-12-18T20:16:29.358Z,23.93
2022-12-18T20:18:56.964Z,23.47
2022-12-18T20:21:25.247Z,23.20
2022-12-18T20:23:52.094Z,23.20
2022-12-18T20:26:19.271Z,23.87
2022-12-18T20:28:45.658Z,25.63
2022-12-18T20:31:13.580Z,20.73
2022-12-18T20:33:41.423Z,24.07
2022-12-18T20:36:13.069Z,22.60
2022-12-18T20:38:41.381Z,23.53
2022-12-18T20:41:16.261Z,23.40
2022-12-18T20:43:43.830Z,22.57
2022-12-18T20:46:13.488Z,21.50
2022-12-18T20:48:40.256Z,22.23
2022-12-18T20:51:18.340Z,21.83
2022-12-18T20:53:45.744Z,24.07
2022-12-18T20:56:19.635Z,24.03
2022-12-18T20:58:49.360Z,24.40
2022-12-18T21:01:18.820Z,23.70
2022-12-18T21:03:46.152Z,22.23
2022-12-18T21:06:14.176Z,22.70
2022-12-18T21:08:42.900Z,22.53
2022-12-18T21:11:35.053Z,24.03
2022-12-18T21:14:03.146Z,22.30
2022-12-18T21:16:29.740Z,24.27
2022-12-18T21:18:56.135Z,24.67
2022-12-18T21:21:26.597Z,27.10
2022-12-18T21:23:53.680Z,24.90
2022-12-18T21:26:22.573Z,22.30
2022-12-18T21:28:57.201Z,23.30
2022-12-18T21:31:26.909Z,25.87
2022-12-18T21:33:56.475Z,23.03
2022-12-18T21:36:28.996Z,25.73
2022-12-18T21:38:57.639Z,25.87
2022-12-18T21:41:44.211Z,25.10
2022-12-18T21:44:12.820Z,22.57
2022-12-18T21:46:44.481Z,23.37
2022-12-18T21:49:14.381Z,24.10
2022-12-18T21:51:41.234Z,23.03
2022-12-18T21:54:07.646Z,21.27
2022-12-18T21:56:53.065Z,22.90
2022-12-18T21:59:39.878Z,22.73
2022-12-18T22:02:10.489Z,23.23
2022-12-18T22:04:45.915Z,23.90
2022-12-18T22:07:13.763Z,24.87
2022-12-18T22:09:40.447Z,24.80
2022-12-18T22:12:08.887Z,23.40
2022-12-18T22:14:35.898Z,24.33
2022-12-18T22:17:03.057Z,24.63
2022-12-18T22:19:30.304Z,24.27
2022-12-18T22:21:56.674Z,22.33
2022-12-18T22:24:25.672Z,23.80
2022-12-18T22:26:54.186Z,23.13
2022-12-18T22:29:46.877Z,23.13
2022-12-18T22:32:16.845Z,22.77
2022-12-18T22:34:46.765Z,23.53
2022-12-18T22:37:13.201Z,24.07
2022-12-18T22:39:39.991Z,23.73
2022-12-18T22:42:07.425Z,27.20
2022-12-18T22:44:33.849Z,21.17
2022-12-18T22:47:06.218Z,24.03
2022-12-18T22:49:35.087Z,23.70
2022-12-18T22:52:02.533Z,22.93
2022-12-18T22:54:28.921Z,22.93
2022-12-18T22:56:55.559Z,23.37
2022-12-18T22:59:23.212Z,23.30
2022-12-18T23:01:51.450Z,23.87
2022-12-18T23:04:28.465Z,25.40
2022-12-18T23:07:01.486Z,21.90
2022-12-18T23:09:28.435Z,23.40
2022-12-18T23:11:54.848Z,22.73
2022-12-18T23:14:21.191Z,22.00
2022-12-18T23:16:47.646Z,24.33
2022-12-18T23:19:16.268Z,24.07
2022-12-18T23:21:42.699Z,24.10
2022-12-18T23:24:09.247Z,23.57
2022-12-18T23:26:35.704Z,23.40
2022-12-18T23:29:03.441Z,24.87
2022-12-18T23:31:35.285Z,23.53
2022-12-18T23:34:03.099Z,23.93
2022-12-18T23:36:29.837Z,23.80
2022-12-18T23:39:00.974Z,22.70
2022-12-18T23:41:32.541Z,23.93
2022-12-18T23:44:00.306Z,24.63
2022-12-18T23:46:29.543Z,24.27
2022-12-18T23:48:58.565Z,24.50
2022-12-18T23:51:25.779Z,23.67
2022-12-18T23:53:53.950Z,23.07
2022-12-18T23:56:20.959Z,24.87
2022-12-18T23:58:48.543Z,25.03
